Home > Products > Valid Products > TAF

000
FTUS42 KKEY 232336
TAFMTH
TAF
KMTH 232336Z 2400/2424 10004KT P6SM FEW030 SCT090=



000
FTUS42 KKEY 232336
TAFEYW
TAF
KEYW 232336Z 2400/2424 10006KT P6SM FEW030 SCT090=



000
FTUS42 KKEY 231726
TAFEYW
TAF
KEYW 231726Z 2318/2418 09005KT P6SM FEW022 SCT090=



000
FTUS42 KKEY 231726
TAFMTH
TAF
KMTH 231726Z 2318/2418 09004KT P6SM FEW022 SCT090=



000
FTUS42 KKEY 231533 AAA
TAFMTH
TAF AMD
KMTH 231533Z 2316/2412 VRB04KT P6SM FEW022 SCT090 BKN200=



000
FTUS42 KKEY 231533 AAA
TAFEYW
TAF AMD
KEYW 231533Z 2316/2412 VRB05KT P6SM FEW022 SCT090 BKN200=



000
FTUS42 KKEY 231124
TAFMTH
TAF
KMTH 231124Z 2312/2412 05004KT P6SM FEW022 SCT090=



000
FTUS42 KKEY 231124
TAFEYW
TAF
KEYW 231124Z 2312/2412 05005KT P6SM FEW022 SCT090=



000
FTUS42 KKEY 230859 AAA
TAFEYW
TAF AMD
KEYW 230859Z 2309/2406 35004KT P6SM SCT027
     FM231600 01006KT P6SM VCSH SCT022 BKN060 BKN150=



000
FTUS42 KKEY 230859 AAA
TAFMTH
TAF AMD
KMTH 230859Z 2309/2406 31005KT P6SM SCT027
     FM231600 01006KT P6SM VCSH SCT025 BKN060 BKN150=



000
FTUS42 KKEY 230520
TAFEYW
TAF
KEYW 230520Z 2306/2406 33004KT P6SM SCT027
     FM231300 01006KT P6SM SCT025 BKN150=



000
FTUS42 KKEY 230520
TAFMTH
TAF
KMTH 230520Z 2306/2406 31005KT P6SM SCT027
     FM231300 03006KT P6SM SCT025 BKN150=



000
FTUS42 KKEY 222340
TAFEYW
TAF
KEYW 222340Z 2300/2324 33006KT P6SM FEW025
     FM230300 35003KT P6SM SCT025 BKN220
     FM231300 03006KT P6SM SCT025 BKN150=



000
FTUS42 KKEY 222340
TAFMTH
TAF
KMTH 222340Z 2300/2324 29008KT P6SM FEW025
     FM230500 35003KT P6SM FEW020 BKN220
     FM231300 03006KT P6SM SCT025 BKN150=



000
FTUS42 KKEY 221734
TAFMTH
TAF
KMTH 221734Z 2218/2318 29010KT P6SM SCT025
     FM230300 35003KT P6SM FEW020 BKN250
     FM231300 03006KT P6SM SCT025 BKN250=



000
FTUS42 KKEY 221734
TAFEYW
TAF
KEYW 221734Z 2218/2318 33010KT P6SM SCT025
     FM230300 35003KT P6SM SCT025 BKN250
     FM231300 03006KT P6SM SCT025 BKN250=



000
FTUS42 KKEY 221447 AAA
TAFEYW
TAF AMD
KEYW 221447Z 2215/2312 33010KT P6SM SCT020
     FM230300 35003KT P6SM FEW020 BKN250=



000
FTUS42 KKEY 221447 AAA
TAFMTH
TAF AMD
KMTH 221447Z 2215/2312 29010KT P6SM SCT020
     FM230500 35003KT P6SM FEW020 BKN250=



000
FTUS42 KKEY 221120
TAFMTH
TAF
KMTH 221120Z 2212/2312 30003KT P6SM SKC
     FM221600 31008KT P6SM SCT020
     FM230100 33003KT P6SM SKC=



000
FTUS42 KKEY 221120
TAFEYW
TAF
KEYW 221120Z 2212/2312 32004KT P6SM SKC
     FM221600 32008KT P6SM SCT020
     FM230100 34003KT P6SM SKC=



000
FTUS42 KKEY 220520
TAFMTH
TAF
KMTH 220520Z 2206/2306 31003KT P6SM SKC
     FM221600 31008KT P6SM SCT020
     FM230100 33003KT P6SM SKC=



000
FTUS42 KKEY 220520
TAFEYW
TAF
KEYW 220520Z 2206/2306 32004KT P6SM SKC
     FM221600 32008KT P6SM SCT020
     FM230100 34003KT P6SM SKC=



000
FTUS42 KKEY 212340
TAFEYW
TAF
KEYW 212340Z 2200/2224 32005KT P6SM FEW020
     FM220600 VRB05KT P6SM SCT015
     FM221600 30007KT P6SM SCT020=



000
FTUS42 KKEY 212340
TAFMTH
TAF
KMTH 212340Z 2200/2224 31004KT P6SM FEW020
     FM220600 VRB04KT P6SM SCT015
     FM221600 30007KT P6SM SCT020=



000
FTUS42 KKEY 211721
TAFMTH
TAF
KMTH 211721Z 2118/2218 VRB06KT P6SM FEW018
     FM212100 31006KT P6SM FEW015
     FM220600 VRB04KT P6SM SCT015
     FM221600 30007KT P6SM SCT015=



000
FTUS42 KKEY 211721
TAFEYW
TAF
KEYW 211721Z 2118/2218 22008KT P6SM FEW018
     FM212100 31005KT P6SM FEW015
     FM220600 VRB06KT P6SM SCT015
     FM221600 30007KT P6SM SCT015=



    US Dept of Commerce
    National Oceanic and Atmospheric Administration
    National Weather Service
    1325 East West Highway
    Silver Spring, MD 20910
    Page Author: NWS Internet Services Team
Disclaimer
Information Quality
Credits
Glossary
Privacy Policy
Freedom of Information Act (FOIA)
About Us
Career Opportunities